This is the latest recevied weather packets stored in our database for station/object OE-5019. If no packets are shown the sender has not sent any weather packets the latest 10 day(s).
| Time | Temp. | Humidity | Pressure | Rain* | Wind** | Luminosity | Snow |
|---|---|---|---|---|---|---|---|
| 1787834473 | 27.78° C | 48% | 1011.2 hPa | - | - | - | - |
| 1787832673 | 26.67° C | 50% | 1012.7 hPa | - | - | - | - |
| 1787830873 | 26.11° C | 53% | 1013 hPa | - | - | - | - |
| 1787829073 | 25.56° C | 56% | 1013.3 hPa | - | - | - | - |
| 1787827272 | 24.44° C | 58% | 1013.8 hPa | - | - | - | - |
| 1787825473 | 22.78° C | 66% | 1014.5 hPa | - | - | - | - |
| 1787823673 | 21.11° C | 71% | 1015.1 hPa | - | - | - | - |
| 1787821873 | 21.11° C | 68% | 1016.2 hPa | - | - | - | - |
| 1787820073 | 20.56° C | 69% | 1015.5 hPa | - | - | - | - |
| 1787818273 | 18.33° C | 79% | 1017.7 hPa | - | - | - | - |
| 1787816472 | 16.67° C | 85% | 1018.4 hPa | - | - | - | - |
| 1787814673 | 15.56° C | 89% | 1018.8 hPa | - | - | - | - |
| 1787812873 | 14.44° C | 93% | 1019.2 hPa | - | - | - | - |
| 1787811312 | 13.89° C | 93% | 1019.5 hPa | - | - | - | - |
| 1787809273 | 13.33° C | 92% | 1019.9 hPa | - | - | - | - |
| 1787807473 | 13.33° C | 92% | 1019.9 hPa | - | - | - | - |
| 1787805672 | 14.44° C | 92% | 1019.5 hPa | - | - | - | - |
| 1787803873 | 14.44° C | 92% | 1019.2 hPa | - | - | - | - |
| 1787800273 | 14.44° C | 92% | 1019.2 hPa | - | - | - | - |
| 1787798472 | 14.44° C | 92% | 1019.2 hPa | - | - | - | - |
| 1787796673 | 14.44° C | 92% | 1019.2 hPa | - | - | - | - |
| 1787794873 | 14.44° C | 92% | 1019.3 hPa | - | - | - | - |
| 1787793073 | 14.44° C | 92% | 1019.4 hPa | - | - | - | - |
| 1787791273 | 14.44° C | 93% | 1019.4 hPa | - | - | - | - |
| 1787789472 | 13.89° C | 93% | 1019.5 hPa | - | - | - | - |
* Rain since midnight (hover to see other rain measurements)
** Current wind speed in m/s (hover to see current wind gust speed)